createdAt,value
2023-05-10T00:00:35.447Z,5.20
2023-05-10T00:03:12.005Z,5.70
2023-05-10T00:05:40.304Z,4.90
2023-05-10T00:08:08.678Z,5.30
2023-05-10T00:10:38.492Z,5.20
2023-05-10T00:13:06.736Z,5.40
2023-05-10T00:15:35.873Z,5.20
2023-05-10T00:18:04.320Z,4.90
2023-05-10T00:20:32.616Z,5.60
2023-05-10T00:23:00.903Z,8.40
2023-05-10T00:25:29.075Z,11.00
2023-05-10T00:27:58.407Z,6.80
2023-05-10T00:30:26.765Z,7.10
2023-05-10T00:32:55.061Z,9.10
2023-05-10T00:35:23.900Z,5.90
2023-05-10T00:37:52.096Z,5.00
2023-05-10T00:40:20.321Z,5.30
2023-05-10T00:42:50.701Z,5.00
2023-05-10T00:45:18.879Z,4.70
2023-05-10T00:47:47.506Z,4.70
2023-05-10T00:50:16.792Z,5.10
2023-05-10T00:52:45.356Z,5.40
2023-05-10T00:55:13.721Z,4.60
2023-05-10T00:57:42.823Z,5.30
2023-05-10T01:00:12.529Z,6.00
2023-05-10T01:02:42.623Z,5.70
2023-05-10T01:05:10.987Z,4.50
2023-05-10T01:07:39.804Z,5.10
2023-05-10T01:10:09.640Z,4.80
2023-05-10T01:12:40.890Z,4.70
2023-05-10T01:15:12.067Z,5.30
2023-05-10T01:17:43.161Z,5.00
2023-05-10T01:20:12.990Z,5.80
2023-05-10T01:23:26.101Z,5.70
2023-05-10T01:26:15.269Z,4.90
2023-05-10T01:29:21.638Z,5.00
2023-05-10T01:32:07.933Z,5.10
2023-05-10T01:34:42.564Z,4.70
2023-05-10T01:37:16.797Z,5.90
2023-05-10T01:39:55.818Z,6.40
2023-05-10T01:42:29.993Z,4.90
2023-05-10T01:45:08.643Z,4.70
2023-05-10T01:47:43.258Z,5.90
2023-05-10T01:50:17.897Z,5.30
2023-05-10T01:52:52.512Z,5.30
2023-05-10T01:55:24.463Z,5.30
2023-05-10T01:58:07.036Z,5.60
2023-05-10T02:00:36.698Z,4.70
2023-05-10T02:03:09.107Z,4.90
2023-05-10T02:05:40.843Z,4.70
2023-05-10T02:08:10.855Z,5.20
2023-05-10T02:13:11.352Z,5.00
2023-05-10T02:15:41.195Z,5.40
2023-05-10T02:18:12.040Z,5.10
2023-05-10T02:20:40.730Z,5.50
2023-05-10T02:23:10.944Z,6.20
2023-05-10T02:25:40.540Z,5.20
2023-05-10T02:28:09.990Z,4.80
2023-05-10T02:30:38.756Z,3.80
2023-05-10T02:33:08.672Z,4.90
2023-05-10T02:35:39.514Z,4.60
2023-05-10T02:38:10.375Z,5.50
2023-05-10T02:40:40.088Z,5.80
2023-05-10T02:43:13.343Z,5.30
2023-05-10T02:45:42.848Z,5.30
2023-05-10T02:48:11.473Z,5.60
2023-05-10T02:50:45.147Z,5.20
2023-05-10T02:53:20.472Z,5.30
2023-05-10T02:55:53.029Z,5.70
2023-05-10T02:58:22.762Z,5.80
2023-05-10T03:00:50.931Z,6.30
2023-05-10T03:03:19.524Z,6.30
2023-05-10T03:05:47.814Z,6.20
2023-05-10T03:08:16.489Z,5.80
2023-05-10T03:11:14.260Z,5.80
2023-05-10T03:14:09.989Z,5.60
2023-05-10T03:16:48.254Z,5.70
2023-05-10T03:19:28.746Z,5.40
2023-05-10T03:22:01.346Z,5.90
2023-05-10T03:24:31.577Z,5.30
2023-05-10T03:27:03.928Z,5.70
2023-05-10T03:29:33.127Z,6.00
2023-05-10T03:32:01.598Z,5.70
2023-05-10T03:34:32.686Z,5.40
2023-05-10T03:37:01.016Z,5.50
2023-05-10T03:39:30.241Z,5.90
2023-05-10T03:41:59.921Z,7.20
2023-05-10T03:44:28.308Z,6.90
2023-05-10T03:46:58.216Z,5.90
2023-05-10T03:49:26.497Z,6.10
2023-05-10T03:51:54.675Z,5.70
2023-05-10T03:54:22.859Z,6.30
2023-05-10T03:56:50.981Z,5.60
2023-05-10T03:59:19.514Z,8.40
2023-05-10T04:01:47.710Z,9.10
2023-05-10T04:04:16.725Z,10.30
2023-05-10T04:06:46.107Z,14.30
2023-05-10T04:09:14.876Z,12.70
2023-05-10T04:11:43.138Z,11.50
2023-05-10T04:14:11.623Z,10.70
2023-05-10T04:16:39.844Z,6.50
2023-05-10T04:19:08.172Z,5.90
2023-05-10T04:21:36.246Z,6.00
2023-05-10T04:24:04.816Z,6.10
2023-05-10T04:26:32.899Z,5.40
2023-05-10T04:29:01.174Z,5.20
2023-05-10T04:31:29.635Z,7.10
2023-05-10T04:33:57.828Z,10.60
2023-05-10T04:36:26.018Z,7.70
2023-05-10T04:38:54.383Z,5.70
2023-05-10T04:41:22.446Z,7.30
2023-05-10T04:43:50.620Z,8.60
2023-05-10T04:46:18.839Z,11.90
2023-05-10T04:48:47.078Z,8.70
2023-05-10T04:51:15.248Z,5.70
2023-05-10T04:53:46.612Z,8.80
2023-05-10T04:56:23.274Z,8.80
2023-05-10T04:58:51.342Z,6.10
2023-05-10T05:01:19.650Z,8.30
2023-05-10T05:03:48.026Z,7.70
2023-05-10T05:06:16.478Z,9.90
2023-05-10T05:08:44.661Z,8.10
2023-05-10T05:11:12.708Z,11.80
2023-05-10T05:13:40.801Z,8.00
2023-05-10T05:16:09.085Z,8.20
2023-05-10T05:18:37.359Z,5.50
2023-05-10T05:21:16.309Z,5.30
2023-05-10T05:23:44.921Z,4.50
2023-05-10T05:26:13.259Z,6.80
2023-05-10T05:28:41.445Z,4.80
2023-05-10T05:31:09.871Z,5.70
2023-05-10T05:33:38.785Z,4.40
2023-05-10T05:36:07.283Z,4.30
2023-05-10T05:38:35.548Z,3.50
2023-05-10T05:41:04.117Z,3.90
2023-05-10T05:43:32.200Z,3.70
2023-05-10T05:46:00.505Z,3.40
2023-05-10T05:48:30.388Z,3.80
2023-05-10T05:50:58.974Z,3.40
2023-05-10T05:53:27.360Z,3.80
2023-05-10T05:55:57.273Z,4.10
2023-05-10T05:58:26.712Z,3.40
2023-05-10T06:00:55.176Z,3.20
2023-05-10T06:03:23.530Z,3.70
2023-05-10T06:05:51.813Z,3.60
2023-05-10T06:08:19.894Z,3.60
2023-05-10T06:10:48.056Z,3.40
2023-05-10T06:13:16.800Z,3.40
2023-05-10T06:15:44.965Z,3.90
2023-05-10T06:18:13.235Z,3.20
2023-05-10T06:20:43.020Z,3.30
2023-05-10T06:23:11.180Z,3.40
2023-05-10T06:25:39.424Z,3.30
2023-05-10T06:28:07.761Z,3.30
2023-05-10T06:30:37.665Z,3.00
2023-05-10T06:33:06.179Z,3.50
2023-05-10T06:35:35.348Z,3.00
2023-05-10T06:38:03.626Z,2.80
2023-05-10T06:40:31.702Z,2.40
2023-05-10T06:42:59.848Z,2.40
2023-05-10T06:45:28.023Z,3.10
2023-05-10T06:47:56.340Z,2.70
2023-05-10T06:50:24.675Z,2.80
2023-05-10T06:52:53.232Z,2.70
2023-05-10T06:55:21.553Z,2.80
2023-05-10T06:57:52.812Z,2.50
2023-05-10T07:00:21.591Z,3.00
2023-05-10T07:02:50.214Z,3.00
2023-05-10T07:05:18.909Z,3.30
2023-05-10T07:07:47.474Z,2.90
2023-05-10T07:10:15.917Z,2.90
2023-05-10T07:12:44.345Z,3.60
2023-05-10T07:15:12.566Z,3.10
2023-05-10T07:17:43.068Z,2.70
2023-05-10T07:20:12.920Z,2.20
2023-05-10T07:22:41.388Z,3.10
2023-05-10T07:25:10.188Z,2.10
2023-05-10T07:27:41.322Z,2.10
2023-05-10T07:30:10.267Z,2.70
2023-05-10T07:32:38.589Z,1.90
2023-05-10T07:35:07.913Z,1.80
2023-05-10T07:37:36.127Z,1.60
2023-05-10T07:40:04.852Z,1.70
2023-05-10T07:42:33.129Z,2.30
2023-05-10T07:45:01.305Z,1.60
2023-05-10T07:47:29.450Z,1.60
2023-05-10T07:49:57.695Z,1.80
2023-05-10T07:52:26.037Z,2.10
2023-05-10T07:54:54.813Z,1.70
2023-05-10T07:57:22.991Z,1.80
2023-05-10T07:59:51.173Z,1.80
2023-05-10T08:02:19.488Z,2.10
2023-05-10T08:04:47.820Z,2.30
2023-05-10T08:07:16.067Z,2.30
2023-05-10T08:09:44.384Z,2.10
2023-05-10T08:12:12.651Z,1.90
2023-05-10T08:14:41.848Z,1.70
2023-05-10T08:17:10.122Z,1.40
2023-05-10T08:19:38.198Z,2.40
2023-05-10T08:22:06.680Z,1.70
2023-05-10T08:24:39.356Z,1.40
2023-05-10T08:27:07.555Z,2.00
2023-05-10T08:29:49.020Z,1.70
2023-05-10T08:32:19.056Z,1.50
2023-05-10T08:34:47.314Z,1.40
2023-05-10T08:37:15.892Z,1.40
2023-05-10T08:39:44.064Z,1.70
2023-05-10T08:42:13.712Z,1.60
2023-05-10T08:44:42.881Z,1.60
2023-05-10T08:47:11.918Z,1.60
2023-05-10T08:49:40.968Z,1.60
2023-05-10T08:52:10.767Z,1.50
2023-05-10T08:54:39.377Z,1.60
2023-05-10T08:57:07.753Z,2.20
2023-05-10T08:59:35.919Z,2.00
2023-05-10T09:02:06.000Z,1.90
2023-05-10T09:04:34.178Z,1.80
2023-05-10T09:07:02.897Z,1.80
2023-05-10T09:09:32.265Z,1.90
2023-05-10T09:12:00.989Z,1.90
2023-05-10T09:14:29.774Z,2.20
2023-05-10T09:16:58.187Z,1.60
2023-05-10T09:19:26.438Z,1.60
2023-05-10T09:21:54.606Z,2.20
2023-05-10T09:24:27.872Z,1.50
2023-05-10T09:26:59.543Z,1.40
2023-05-10T09:29:27.733Z,1.50
2023-05-10T09:31:56.516Z,1.40
2023-05-10T09:34:32.523Z,1.40
2023-05-10T09:37:02.675Z,1.50
2023-05-10T09:39:40.187Z,1.80
2023-05-10T09:42:10.206Z,1.70
2023-05-10T09:44:39.412Z,1.60
2023-05-10T09:47:07.604Z,1.30
2023-05-10T09:49:36.171Z,1.30
2023-05-10T09:52:09.015Z,1.30
2023-05-10T09:54:37.587Z,1.70
2023-05-10T09:57:06.626Z,1.40
2023-05-10T09:59:36.452Z,1.40
2023-05-10T10:02:04.988Z,1.80
2023-05-10T10:04:33.985Z,1.20
2023-05-10T10:07:05.191Z,2.40
2023-05-10T10:09:36.042Z,1.80
2023-05-10T10:12:05.067Z,1.30
2023-05-10T10:19:35.466Z,2.50
2023-05-10T10:22:03.991Z,1.80
2023-05-10T10:24:32.312Z,2.10
2023-05-10T10:27:29.877Z,1.40
2023-05-10T10:30:36.680Z,1.60
2023-05-10T10:33:28.951Z,1.70
2023-05-10T10:36:01.585Z,1.70
2023-05-10T10:38:52.788Z,1.90
2023-05-10T10:41:30.189Z,1.80
2023-05-10T10:44:27.472Z,2.00
2023-05-10T10:47:07.452Z,1.50
2023-05-10T10:49:42.126Z,1.70
2023-05-10T10:52:34.298Z,2.10
2023-05-10T10:55:02.755Z,1.60
2023-05-10T10:57:44.832Z,1.80
2023-05-10T11:00:28.391Z,2.10
2023-05-10T11:03:07.422Z,1.60
2023-05-10T11:05:47.674Z,1.60
2023-05-10T11:08:20.745Z,1.90
2023-05-10T11:11:08.341Z,1.70
2023-05-10T11:16:18.081Z,2.20
2023-05-10T11:18:59.981Z,2.00
2023-05-10T11:21:28.924Z,2.10
2023-05-10T11:23:58.917Z,2.40
2023-05-10T11:26:36.828Z,2.00
2023-05-10T11:29:06.246Z,2.20
2023-05-10T11:31:35.335Z,1.50
2023-05-10T11:34:03.524Z,2.10
2023-05-10T11:36:37.146Z,2.10
2023-05-10T11:39:07.237Z,2.00
2023-05-10T11:41:35.515Z,2.30
2023-05-10T11:44:04.110Z,1.90
2023-05-10T11:46:32.778Z,2.00
2023-05-10T11:49:03.166Z,1.80
2023-05-10T11:51:36.215Z,1.90
2023-05-10T11:54:10.368Z,1.80
2023-05-10T11:56:40.428Z,2.20
2023-05-10T11:59:09.474Z,2.00
2023-05-10T12:04:06.489Z,2.10
2023-05-10T12:06:41.637Z,2.10
2023-05-10T12:09:10.208Z,2.00
2023-05-10T12:11:43.872Z,1.90
2023-05-10T12:14:12.800Z,1.70
2023-05-10T12:16:41.399Z,1.90
2023-05-10T12:19:10.132Z,1.70
2023-05-10T12:21:40.157Z,1.80
2023-05-10T12:24:08.980Z,2.10
2023-05-10T12:26:38.075Z,2.20
2023-05-10T12:31:57.074Z,1.80
2023-05-10T12:34:32.518Z,2.00
2023-05-10T12:37:02.228Z,1.70
2023-05-10T12:39:45.854Z,1.80
2023-05-10T12:42:14.152Z,2.30
2023-05-10T12:44:42.579Z,1.70
2023-05-10T12:47:10.780Z,1.50
2023-05-10T12:49:39.363Z,2.10
2023-05-10T12:52:07.784Z,2.20
2023-05-10T12:57:05.007Z,1.90
2023-05-10T12:59:33.453Z,1.80
2023-05-10T13:02:02.589Z,2.10
2023-05-10T13:04:30.784Z,1.70
2023-05-10T13:07:00.219Z,1.90
2023-05-10T13:09:30.752Z,2.00
2023-05-10T13:11:59.182Z,1.60
2023-05-10T13:14:27.664Z,2.00
2023-05-10T13:16:56.002Z,2.30
2023-05-10T13:19:24.615Z,2.00
2023-05-10T13:21:52.893Z,1.70
2023-05-10T13:24:21.684Z,1.90
2023-05-10T13:26:49.864Z,1.70
2023-05-10T13:29:22.228Z,1.60
2023-05-10T13:31:50.749Z,2.20
2023-05-10T13:34:25.365Z,2.00
2023-05-10T13:36:55.001Z,1.60
2023-05-10T13:39:23.628Z,1.60
2023-05-10T13:41:52.344Z,1.70
2023-05-10T13:44:22.487Z,1.70
2023-05-10T13:46:51.131Z,1.70
2023-05-10T13:49:19.402Z,1.50
2023-05-10T13:51:48.089Z,1.90
2023-05-10T13:54:16.255Z,1.70
2023-05-10T13:56:45.158Z,1.60
2023-05-10T13:59:13.312Z,1.60
2023-05-10T14:01:42.387Z,1.60
2023-05-10T14:04:11.656Z,1.90
2023-05-10T14:06:40.010Z,1.60
2023-05-10T14:09:08.693Z,1.50
2023-05-10T14:11:37.081Z,1.70
2023-05-10T14:14:06.165Z,1.50
2023-05-10T14:16:34.388Z,1.70
2023-05-10T14:19:02.930Z,1.80
2023-05-10T14:21:31.913Z,2.20
2023-05-10T14:24:00.189Z,2.20
2023-05-10T14:26:28.571Z,2.00
2023-05-10T14:28:56.894Z,1.80
2023-05-10T14:31:26.816Z,2.30
2023-05-10T14:33:55.146Z,2.30
2023-05-10T14:36:23.828Z,2.20
2023-05-10T14:38:52.825Z,2.10
2023-05-10T14:41:21.196Z,2.40
2023-05-10T14:43:49.527Z,2.20
2023-05-10T14:46:18.327Z,1.80
2023-05-10T14:48:46.947Z,2.90
2023-05-10T14:51:15.373Z,2.40
2023-05-10T14:53:43.944Z,2.30
2023-05-10T14:56:12.183Z,2.90
2023-05-10T14:58:40.251Z,2.90
2023-05-10T15:01:08.675Z,2.40
2023-05-10T15:03:37.689Z,2.20
2023-05-10T15:06:07.236Z,2.50
2023-05-10T15:08:36.125Z,2.40
2023-05-10T15:11:04.402Z,2.70
2023-05-10T15:13:32.580Z,2.30
2023-05-10T15:16:01.311Z,2.30
2023-05-10T15:18:29.559Z,2.40
2023-05-10T15:20:59.145Z,2.10
2023-05-10T15:23:31.008Z,2.80
2023-05-10T15:25:59.178Z,2.90
2023-05-10T15:28:27.348Z,2.30
2023-05-10T15:30:56.493Z,2.40
2023-05-10T15:33:25.658Z,3.00
2023-05-10T15:35:54.796Z,2.60
2023-05-10T15:38:23.858Z,2.90
2023-05-10T15:40:52.116Z,2.30
2023-05-10T15:43:20.389Z,3.20
2023-05-10T15:45:48.669Z,3.20
2023-05-10T15:48:17.563Z,2.80
2023-05-10T15:50:46.139Z,2.80
2023-05-10T15:53:14.324Z,2.80
2023-05-10T15:55:42.593Z,3.00
2023-05-10T15:58:11.499Z,2.90
2023-05-10T16:00:39.706Z,2.90
2023-05-10T16:03:08.637Z,2.30
2023-05-10T16:05:37.032Z,2.90
2023-05-10T16:08:05.235Z,3.20
2023-05-10T16:10:33.588Z,3.70
2023-05-10T16:13:03.508Z,3.70
2023-05-10T16:15:31.786Z,3.30
2023-05-10T16:18:00.232Z,4.00
2023-05-10T16:20:30.195Z,4.40
2023-05-10T16:25:28.169Z,5.10
2023-05-10T16:27:56.340Z,3.90
2023-05-10T16:30:29.732Z,6.90
2023-05-10T16:32:58.994Z,3.70
2023-05-10T16:35:27.719Z,7.80
2023-05-10T16:37:57.303Z,9.50
2023-05-10T16:40:25.938Z,10.90
2023-05-10T16:42:54.091Z,11.10
2023-05-10T16:45:22.258Z,16.20
2023-05-10T16:47:50.695Z,13.80
2023-05-10T16:50:19.027Z,9.70
2023-05-10T16:52:47.395Z,4.70
2023-05-10T16:55:15.784Z,4.20
2023-05-10T16:57:44.158Z,4.10
2023-05-10T17:00:13.055Z,3.40
2023-05-10T17:02:41.913Z,3.20
2023-05-10T17:05:10.724Z,4.30
2023-05-10T17:07:38.922Z,4.90
2023-05-10T17:10:07.790Z,5.40
2023-05-10T17:12:35.975Z,6.50
2023-05-10T17:15:05.335Z,6.20
2023-05-10T17:17:33.571Z,6.40
2023-05-10T17:20:02.961Z,8.00
2023-05-10T17:22:31.117Z,7.60
2023-05-10T17:24:59.298Z,6.00
2023-05-10T17:27:30.291Z,5.80
2023-05-10T17:29:59.379Z,4.40
2023-05-10T17:32:27.737Z,6.80
2023-05-10T17:34:56.190Z,6.90
2023-05-10T17:37:24.365Z,20.60
2023-05-10T17:39:52.543Z,29.30
2023-05-10T17:42:21.042Z,21.00
2023-05-10T17:44:49.299Z,21.40
2023-05-10T17:47:18.612Z,15.30
2023-05-10T17:49:46.977Z,9.50
2023-05-10T17:52:15.166Z,11.90
2023-05-10T17:54:45.997Z,11.40
2023-05-10T17:57:14.158Z,12.30
2023-05-10T17:59:42.567Z,9.10
2023-05-10T18:02:11.033Z,8.80
2023-05-10T18:04:43.250Z,7.10
2023-05-10T18:07:12.384Z,4.80
2023-05-10T18:09:40.562Z,6.20
2023-05-10T18:12:09.756Z,5.80
2023-05-10T18:14:41.135Z,5.60
2023-05-10T18:17:10.342Z,8.30
2023-05-10T18:19:38.594Z,7.30
2023-05-10T18:22:10.527Z,6.50
2023-05-10T18:24:41.580Z,5.80
2023-05-10T18:27:10.377Z,6.50
2023-05-10T18:29:39.778Z,8.30
2023-05-10T18:32:08.272Z,8.50
2023-05-10T18:34:36.544Z,7.40
2023-05-10T18:37:07.766Z,5.40
2023-05-10T18:39:39.255Z,4.20
2023-05-10T18:42:09.074Z,4.20
2023-05-10T18:44:37.320Z,4.70
2023-05-10T18:47:05.492Z,3.80
2023-05-10T18:49:35.097Z,3.80
2023-05-10T18:52:03.373Z,4.40
2023-05-10T18:54:31.554Z,6.10
2023-05-10T18:56:59.622Z,5.50
2023-05-10T18:59:30.867Z,5.10
2023-05-10T19:01:59.215Z,4.70
2023-05-10T19:04:27.477Z,7.50
2023-05-10T19:06:56.848Z,9.20
2023-05-10T19:09:27.150Z,7.60
2023-05-10T19:11:55.228Z,6.70
2023-05-10T19:14:25.154Z,5.30
2023-05-10T19:19:24.303Z,3.70
2023-05-10T19:21:52.732Z,4.30
2023-05-10T19:24:24.348Z,3.70
2023-05-10T19:26:52.870Z,5.10
2023-05-10T19:29:21.045Z,4.50
2023-05-10T19:31:49.513Z,4.70
2023-05-10T19:34:18.787Z,4.10
2023-05-10T19:36:46.996Z,3.90
2023-05-10T19:39:15.482Z,6.00
2023-05-10T19:41:43.884Z,7.30
2023-05-10T19:44:12.141Z,8.60
2023-05-10T19:46:40.721Z,7.70
2023-05-10T19:49:08.998Z,8.10
2023-05-10T19:51:37.071Z,8.70
2023-05-10T19:54:05.244Z,9.80
2023-05-10T19:56:33.411Z,11.40
2023-05-10T19:59:03.534Z,10.20
2023-05-10T20:01:33.052Z,15.40
2023-05-10T20:04:01.379Z,8.60
2023-05-10T20:06:29.690Z,5.70
2023-05-10T20:08:57.764Z,4.90
2023-05-10T20:11:25.942Z,5.30
2023-05-10T20:13:54.118Z,6.60
2023-05-10T20:16:23.860Z,7.70
2023-05-10T20:18:54.763Z,7.40
2023-05-10T20:21:23.977Z,6.50
2023-05-10T20:23:52.568Z,5.90
2023-05-10T20:26:21.951Z,6.10
2023-05-10T20:28:51.045Z,8.10
2023-05-10T20:31:19.245Z,6.50
2023-05-10T20:33:47.397Z,4.60
2023-05-10T20:36:15.460Z,4.70
2023-05-10T20:38:43.536Z,5.40
2023-05-10T20:41:11.608Z,5.00
2023-05-10T20:43:39.784Z,5.20
2023-05-10T20:46:08.016Z,5.50
2023-05-10T20:48:36.345Z,5.00
2023-05-10T20:51:04.611Z,6.80
2023-05-10T20:53:32.986Z,7.30
2023-05-10T20:56:01.067Z,6.60
2023-05-10T20:58:29.237Z,7.30
2023-05-10T21:00:57.406Z,7.90
2023-05-10T21:03:25.443Z,8.80
2023-05-10T21:05:53.760Z,8.80
2023-05-10T21:08:22.032Z,10.10
2023-05-10T21:10:50.071Z,13.70
2023-05-10T21:13:18.072Z,17.90
2023-05-10T21:15:46.395Z,20.20
2023-05-10T21:18:14.360Z,19.10
2023-05-10T21:20:42.492Z,16.60
2023-05-10T21:23:10.777Z,15.60
2023-05-10T21:25:39.045Z,13.20
2023-05-10T21:28:07.231Z,9.40
2023-05-10T21:30:35.604Z,14.10
2023-05-10T21:33:04.075Z,12.20
2023-05-10T21:35:32.364Z,11.50
2023-05-10T21:38:00.534Z,9.70
2023-05-10T21:40:29.227Z,13.00
2023-05-10T21:42:57.395Z,18.20
2023-05-10T21:45:25.672Z,22.70
2023-05-10T21:47:53.771Z,24.30
2023-05-10T21:50:21.849Z,26.20
2023-05-10T21:52:50.095Z,30.60
2023-05-10T21:55:19.505Z,26.30
2023-05-10T21:57:47.784Z,30.50
2023-05-10T22:00:17.367Z,39.00
2023-05-10T22:05:15.684Z,37.70
2023-05-10T22:07:43.848Z,47.70
2023-05-10T22:10:12.230Z,44.00
2023-05-10T22:12:40.502Z,36.50
2023-05-10T22:15:10.771Z,31.30
2023-05-10T22:17:40.637Z,19.00
2023-05-10T22:20:09.553Z,18.30
2023-05-10T22:22:37.920Z,16.50
2023-05-10T22:25:07.771Z,14.00
2023-05-10T22:30:04.786Z,16.50
2023-05-10T22:32:33.902Z,12.80
2023-05-10T22:35:02.476Z,14.60
2023-05-10T22:37:30.844Z,12.90
2023-05-10T22:39:58.920Z,18.80
2023-05-10T22:42:26.984Z,20.90
2023-05-10T22:44:55.159Z,28.60
2023-05-10T22:47:23.146Z,30.60
2023-05-10T22:49:51.409Z,28.60
2023-05-10T22:52:19.609Z,25.50
2023-05-10T22:54:47.865Z,22.00
2023-05-10T22:57:17.411Z,17.00
2023-05-10T22:59:45.747Z,14.70
2023-05-10T23:02:15.043Z,13.20
2023-05-10T23:04:43.582Z,9.80
2023-05-10T23:07:12.004Z,7.60
2023-05-10T23:09:40.036Z,8.40
2023-05-10T23:12:08.461Z,6.30
2023-05-10T23:14:37.135Z,9.40
2023-05-10T23:17:05.248Z,12.70
2023-05-10T23:19:33.603Z,13.90
2023-05-10T23:22:01.664Z,10.20
2023-05-10T23:24:29.745Z,10.50
2023-05-10T23:26:57.793Z,11.40
2023-05-10T23:29:26.808Z,11.20
2023-05-10T23:31:54.991Z,11.80
2023-05-10T23:34:23.151Z,10.20
2023-05-10T23:36:51.221Z,6.50
2023-05-10T23:39:19.295Z,5.90
2023-05-10T23:41:48.089Z,5.80
2023-05-10T23:44:16.775Z,6.40
2023-05-10T23:46:44.845Z,5.70
2023-05-10T23:49:13.038Z,5.30
2023-05-10T23:51:41.223Z,4.50
2023-05-10T23:54:09.479Z,4.60
2023-05-10T23:56:37.547Z,4.40
2023-05-10T23:59:08.589Z,4.30
